sensor_id;sensor_type;location;lat;lon;timestamp;pressure;altitude;pressure_sealevel;temperature;humidity
13974;BME280;7060;43.770;4.008;2023-04-08T00:00:08;101172.13;;;10.59;47.88
13974;BME280;7060;43.770;4.008;2023-04-08T00:02:38;101177.47;;;10.59;47.99
13974;BME280;7060;43.770;4.008;2023-04-08T00:05:08;101176.34;;;10.62;47.83
13974;BME280;7060;43.770;4.008;2023-04-08T00:07:37;101178.03;;;10.63;48.01
13974;BME280;7060;43.770;4.008;2023-04-08T00:10:07;101182.81;;;10.59;48.38
13974;BME280;7060;43.770;4.008;2023-04-08T00:12:36;101176.03;;;10.55;48.33
13974;BME280;7060;43.770;4.008;2023-04-08T00:15:06;101185.03;;;10.54;49.23
13974;BME280;7060;43.770;4.008;2023-04-08T00:17:35;101179.41;;;10.47;49.08
13974;BME280;7060;43.770;4.008;2023-04-08T00:20:04;101182.09;;;10.47;48.79
13974;BME280;7060;43.770;4.008;2023-04-08T00:22:34;101174.19;;;10.46;49.49
13974;BME280;7060;43.770;4.008;2023-04-08T00:25:04;101169.63;;;10.37;49.54
13974;BME280;7060;43.770;4.008;2023-04-08T00:27:32;101173.81;;;10.30;50.04
13974;BME280;7060;43.770;4.008;2023-04-08T00:30:01;101180.41;;;10.26;50.44
13974;BME280;7060;43.770;4.008;2023-04-08T00:32:31;101175.63;;;10.19;50.88
13974;BME280;7060;43.770;4.008;2023-04-08T00:35:00;101177.84;;;10.14;50.55
13974;BME280;7060;43.770;4.008;2023-04-08T00:37:28;101174.13;;;10.06;50.58
13974;BME280;7060;43.770;4.008;2023-04-08T00:39:57;101178.63;;;10.05;50.80
13974;BME280;7060;43.770;4.008;2023-04-08T00:42:26;101188.84;;;10.00;50.83
13974;BME280;7060;43.770;4.008;2023-04-08T00:44:57;101179.53;;;9.95;51.26
13974;BME280;7060;43.770;4.008;2023-04-08T00:47:25;101182.19;;;9.95;50.67
13974;BME280;7060;43.770;4.008;2023-04-08T00:49:55;101175.03;;;9.95;51.13
13974;BME280;7060;43.770;4.008;2023-04-08T00:52:23;101165.75;;;9.90;51.29
13974;BME280;7060;43.770;4.008;2023-04-08T00:54:53;101166.50;;;9.80;51.34
13974;BME280;7060;43.770;4.008;2023-04-08T00:57:22;101172.50;;;9.73;51.53
13974;BME280;7060;43.770;4.008;2023-04-08T00:59:51;101176.34;;;9.59;51.07
13974;BME280;7060;43.770;4.008;2023-04-08T01:02:24;101169.22;;;9.48;50.99
13974;BME280;7060;43.770;4.008;2023-04-08T01:04:59;101165.03;;;9.35;51.05
13974;BME280;7060;43.770;4.008;2023-04-08T01:07:31;101133.22;;;9.11;51.35
13974;BME280;7060;43.770;4.008;2023-04-08T01:10:02;101146.56;;;9.00;51.46
13974;BME280;7060;43.770;4.008;2023-04-08T01:12:37;101172.38;;;9.10;51.67
13974;BME280;7060;43.770;4.008;2023-04-08T01:15:10;101171.53;;;8.99;51.26
13974;BME280;7060;43.770;4.008;2023-04-08T01:17:39;101168.88;;;8.88;51.94
13974;BME280;7060;43.770;4.008;2023-04-08T01:20:12;101173.78;;;8.71;51.88
13974;BME280;7060;43.770;4.008;2023-04-08T01:22:54;101172.19;;;8.58;52.00
13974;BME280;7060;43.770;4.008;2023-04-08T01:25:29;101164.47;;;8.43;52.12
13974;BME280;7060;43.770;4.008;2023-04-08T01:28:02;101166.16;;;8.33;53.02
13974;BME280;7060;43.770;4.008;2023-04-08T01:30:31;101176.44;;;8.15;53.17
13974;BME280;7060;43.770;4.008;2023-04-08T01:33:01;101183.22;;;8.08;53.00
13974;BME280;7060;43.770;4.008;2023-04-08T01:35:32;101182.13;;;8.00;53.19
13974;BME280;7060;43.770;4.008;2023-04-08T01:38:02;101174.72;;;7.92;54.15
13974;BME280;7060;43.770;4.008;2023-04-08T01:40:33;101168.19;;;7.96;53.41
13974;BME280;7060;43.770;4.008;2023-04-08T01:43:07;101169.91;;;7.97;53.81
13974;BME280;7060;43.770;4.008;2023-04-08T01:45:37;101163.09;;;7.93;54.20
13974;BME280;7060;43.770;4.008;2023-04-08T01:48:06;101164.31;;;7.89;54.50
13974;BME280;7060;43.770;4.008;2023-04-08T01:50:36;101171.06;;;7.82;54.54
13974;BME280;7060;43.770;4.008;2023-04-08T01:53:07;101163.28;;;7.68;54.73
13974;BME280;7060;43.770;4.008;2023-04-08T01:55:39;101168.00;;;7.64;54.61
13974;BME280;7060;43.770;4.008;2023-04-08T01:58:11;101158.66;;;7.59;54.88
13974;BME280;7060;43.770;4.008;2023-04-08T02:00:44;101157.66;;;7.48;55.77
13974;BME280;7060;43.770;4.008;2023-04-08T02:03:16;101157.28;;;7.42;56.04
13974;BME280;7060;43.770;4.008;2023-04-08T02:05:46;101149.97;;;7.33;56.11
13974;BME280;7060;43.770;4.008;2023-04-08T02:08:14;101158.25;;;7.28;56.33
13974;BME280;7060;43.770;4.008;2023-04-08T02:10:43;101156.66;;;7.14;56.29
13974;BME280;7060;43.770;4.008;2023-04-08T02:13:13;101157.59;;;7.13;56.38
13974;BME280;7060;43.770;4.008;2023-04-08T02:15:51;101152.97;;;7.04;56.49
13974;BME280;7060;43.770;4.008;2023-04-08T02:18:25;101151.94;;;6.94;56.39
13974;BME280;7060;43.770;4.008;2023-04-08T02:20:58;101157.09;;;6.85;56.86
13974;BME280;7060;43.770;4.008;2023-04-08T02:23:33;101152.88;;;6.69;57.02
13974;BME280;7060;43.770;4.008;2023-04-08T02:26:03;101163.84;;;6.65;56.92
13974;BME280;7060;43.770;4.008;2023-04-08T02:28:36;101159.59;;;6.62;57.16
13974;BME280;7060;43.770;4.008;2023-04-08T02:31:08;101155.78;;;6.54;57.11
13974;BME280;7060;43.770;4.008;2023-04-08T02:33:44;101152.41;;;6.39;57.46
13974;BME280;7060;43.770;4.008;2023-04-08T02:36:13;101164.72;;;6.40;57.89
13974;BME280;7060;43.770;4.008;2023-04-08T02:38:46;101162.06;;;6.40;57.98
13974;BME280;7060;43.770;4.008;2023-04-08T02:41:16;101157.84;;;6.37;57.75
13974;BME280;7060;43.770;4.008;2023-04-08T02:43:46;101159.97;;;6.32;57.70
13974;BME280;7060;43.770;4.008;2023-04-08T02:46:14;101161.69;;;6.21;57.92
13974;BME280;7060;43.770;4.008;2023-04-08T02:48:43;101160.94;;;6.19;57.83
13974;BME280;7060;43.770;4.008;2023-04-08T02:51:11;101118.16;;;5.98;57.70
13974;BME280;7060;43.770;4.008;2023-04-08T02:53:40;101153.72;;;6.21;57.65
13974;BME280;7060;43.770;4.008;2023-04-08T02:56:09;101151.69;;;6.11;57.76
13974;BME280;7060;43.770;4.008;2023-04-08T02:58:37;101155.84;;;6.03;57.97
13974;BME280;7060;43.770;4.008;2023-04-08T03:01:08;101160.41;;;5.88;58.21
13974;BME280;7060;43.770;4.008;2023-04-08T03:03:36;101159.56;;;5.75;58.83
13974;BME280;7060;43.770;4.008;2023-04-08T03:06:05;101149.75;;;5.63;59.00
13974;BME280;7060;43.770;4.008;2023-04-08T03:08:34;101149.22;;;5.58;59.47
13974;BME280;7060;43.770;4.008;2023-04-08T03:11:02;101155.81;;;5.52;59.36
13974;BME280;7060;43.770;4.008;2023-04-08T03:13:30;101155.91;;;5.51;59.54
13974;BME280;7060;43.770;4.008;2023-04-08T03:16:00;101156.75;;;5.51;59.29
13974;BME280;7060;43.770;4.008;2023-04-08T03:18:30;101154.09;;;5.51;59.36
13974;BME280;7060;43.770;4.008;2023-04-08T03:20:58;101159.63;;;5.48;59.05
13974;BME280;7060;43.770;4.008;2023-04-08T03:23:29;101161.06;;;5.39;59.06
13974;BME280;7060;43.770;4.008;2023-04-08T03:25:57;101159.78;;;5.32;59.81
13974;BME280;7060;43.770;4.008;2023-04-08T03:28:26;101153.19;;;5.25;59.87
13974;BME280;7060;43.770;4.008;2023-04-08T03:30:54;101164.00;;;5.22;59.55
13974;BME280;7060;43.770;4.008;2023-04-08T03:33:23;101167.91;;;5.17;60.30
13974;BME280;7060;43.770;4.008;2023-04-08T03:35:54;101147.59;;;5.03;60.18
13974;BME280;7060;43.770;4.008;2023-04-08T03:38:22;101164.03;;;5.08;59.78
13974;BME280;7060;43.770;4.008;2023-04-08T03:40:50;101164.13;;;5.06;59.82
13974;BME280;7060;43.770;4.008;2023-04-08T03:43:19;101161.06;;;5.00;60.05
13974;BME280;7060;43.770;4.008;2023-04-08T03:45:47;101156.06;;;4.95;60.77
13974;BME280;7060;43.770;4.008;2023-04-08T03:48:16;101160.50;;;4.95;60.55
13974;BME280;7060;43.770;4.008;2023-04-08T03:50:44;101155.41;;;4.92;60.95
13974;BME280;7060;43.770;4.008;2023-04-08T03:53:14;101152.84;;;4.90;60.75
13974;BME280;7060;43.770;4.008;2023-04-08T03:55:42;101158.50;;;4.84;61.00
13974;BME280;7060;43.770;4.008;2023-04-08T03:58:11;101168.53;;;4.79;61.27
13974;BME280;7060;43.770;4.008;2023-04-08T04:00:39;101165.47;;;4.72;61.39
13974;BME280;7060;43.770;4.008;2023-04-08T04:03:08;101164.78;;;4.69;62.13
13974;BME280;7060;43.770;4.008;2023-04-08T04:05:39;101167.53;;;4.67;61.61
13974;BME280;7060;43.770;4.008;2023-04-08T04:08:08;101168.50;;;4.66;61.70
13974;BME280;7060;43.770;4.008;2023-04-08T04:10:37;101166.97;;;4.62;61.53
13974;BME280;7060;43.770;4.008;2023-04-08T04:13:06;101165.66;;;4.55;61.16
13974;BME280;7060;43.770;4.008;2023-04-08T04:15:37;101146.31;;;4.40;61.73
13974;BME280;7060;43.770;4.008;2023-04-08T04:18:06;101163.13;;;4.39;61.75
13974;BME280;7060;43.770;4.008;2023-04-08T04:20:34;101168.53;;;4.38;62.50
13974;BME280;7060;43.770;4.008;2023-04-08T04:23:04;101164.63;;;4.29;62.54
13974;BME280;7060;43.770;4.008;2023-04-08T04:25:32;101163.78;;;4.29;62.49
13974;BME280;7060;43.770;4.008;2023-04-08T04:28:02;101159.25;;;4.31;61.84
13974;BME280;7060;43.770;4.008;2023-04-08T04:30:31;101161.06;;;4.30;61.98
13974;BME280;7060;43.770;4.008;2023-04-08T04:32:59;101165.41;;;4.31;61.71
13974;BME280;7060;43.770;4.008;2023-04-08T04:35:28;101157.47;;;4.31;62.15
13974;BME280;7060;43.770;4.008;2023-04-08T04:37:56;101149.41;;;4.33;61.69
13974;BME280;7060;43.770;4.008;2023-04-08T04:40:25;101155.66;;;4.32;61.67
13974;BME280;7060;43.770;4.008;2023-04-08T04:42:53;101158.22;;;4.33;62.02
13974;BME280;7060;43.770;4.008;2023-04-08T04:45:23;101156.78;;;4.28;61.71
13974;BME280;7060;43.770;4.008;2023-04-08T04:47:51;101160.03;;;4.19;61.45
13974;BME280;7060;43.770;4.008;2023-04-08T04:50:20;101160.22;;;4.16;62.31
13974;BME280;7060;43.770;4.008;2023-04-08T04:52:48;101158.22;;;4.19;62.29
13974;BME280;7060;43.770;4.008;2023-04-08T04:55:17;101150.75;;;4.26;61.83
13974;BME280;7060;43.770;4.008;2023-04-08T04:57:45;101156.03;;;4.26;62.34
13974;BME280;7060;43.770;4.008;2023-04-08T05:00:14;101163.03;;;4.27;62.01
13974;BME280;7060;43.770;4.008;2023-04-08T05:02:45;101162.84;;;4.30;62.11
13974;BME280;7060;43.770;4.008;2023-04-08T05:05:13;101163.22;;;4.38;61.95
13974;BME280;7060;43.770;4.008;2023-04-08T05:07:42;101162.00;;;4.43;62.45
13974;BME280;7060;43.770;4.008;2023-04-08T05:10:10;101165.00;;;4.52;62.17
13974;BME280;7060;43.770;4.008;2023-04-08T05:12:39;101165.38;;;4.60;63.11
13974;BME280;7060;43.770;4.008;2023-04-08T05:15:08;101177.94;;;4.70;62.46
13974;BME280;7060;43.770;4.008;2023-04-08T05:17:36;101173.75;;;4.81;62.42
13974;BME280;7060;43.770;4.008;2023-04-08T05:20:07;101186.16;;;4.94;62.61
13974;BME280;7060;43.770;4.008;2023-04-08T05:22:36;101186.94;;;5.09;61.92
13974;BME280;7060;43.770;4.008;2023-04-08T05:25:06;101194.56;;;5.28;61.31
13974;BME280;7060;43.770;4.008;2023-04-08T05:27:34;101204.44;;;5.38;61.17
13974;BME280;7060;43.770;4.008;2023-04-08T05:30:03;101205.34;;;5.52;60.29
13974;BME280;7060;43.770;4.008;2023-04-08T05:32:32;101200.81;;;5.66;60.02
13974;BME280;7060;43.770;4.008;2023-04-08T05:35:01;101206.66;;;5.84;59.23
13974;BME280;7060;43.770;4.008;2023-04-08T05:37:31;101205.75;;;5.98;58.98
13974;BME280;7060;43.770;4.008;2023-04-08T05:40:00;101203.84;;;6.00;59.50
13974;BME280;7060;43.770;4.008;2023-04-08T05:42:28;101194.59;;;5.93;60.05
13974;BME280;7060;43.770;4.008;2023-04-08T05:44:58;101131.00;;;5.53;59.77
13974;BME280;7060;43.770;4.008;2023-04-08T05:47:26;101197.88;;;5.96;59.92
13974;BME280;7060;43.770;4.008;2023-04-08T05:49:55;101202.13;;;5.99;60.17
13974;BME280;7060;43.770;4.008;2023-04-08T05:52:23;101213.81;;;5.96;59.82
13974;BME280;7060;43.770;4.008;2023-04-08T05:54:53;101210.19;;;5.97;59.79
13974;BME280;7060;43.770;4.008;2023-04-08T05:57:22;101196.81;;;5.99;59.34
13974;BME280;7060;43.770;4.008;2023-04-08T05:59:50;101211.47;;;6.17;59.25
13974;BME280;7060;43.770;4.008;2023-04-08T06:02:19;101207.34;;;6.26;59.08
13974;BME280;7060;43.770;4.008;2023-04-08T06:04:47;101211.16;;;6.34;59.25
13974;BME280;7060;43.770;4.008;2023-04-08T06:07:16;101207.00;;;6.43;58.75
13974;BME280;7060;43.770;4.008;2023-04-08T06:09:44;101210.09;;;6.62;57.77
13974;BME280;7060;43.770;4.008;2023-04-08T06:12:14;101214.81;;;6.82;57.45
13974;BME280;7060;43.770;4.008;2023-04-08T06:14:42;101224.00;;;7.02;56.60
13974;BME280;7060;43.770;4.008;2023-04-08T06:17:11;101225.31;;;7.33;56.65
13974;BME280;7060;43.770;4.008;2023-04-08T06:19:39;101222.81;;;7.67;54.85
13974;BME280;7060;43.770;4.008;2023-04-08T06:22:08;101228.25;;;8.00;54.19
13974;BME280;7060;43.770;4.008;2023-04-08T06:24:36;101234.22;;;8.37;53.00
13974;BME280;7060;43.770;4.008;2023-04-08T06:27:05;101237.75;;;8.71;52.31
13974;BME280;7060;43.770;4.008;2023-04-08T06:29:35;101244.28;;;9.12;51.12
13974;BME280;7060;43.770;4.008;2023-04-08T06:32:03;101238.38;;;9.51;50.54
13974;BME280;7060;43.770;4.008;2023-04-08T06:34:33;101240.56;;;9.99;49.11
13974;BME280;7060;43.770;4.008;2023-04-08T06:37:01;101230.59;;;10.43;48.69
13974;BME280;7060;43.770;4.008;2023-04-08T06:39:30;101239.56;;;10.93;47.18
13974;BME280;7060;43.770;4.008;2023-04-08T06:41:59;101231.94;;;11.48;47.27
13974;BME280;7060;43.770;4.008;2023-04-08T06:44:47;101233.03;;;11.94;45.55
13974;BME280;7060;43.770;4.008;2023-04-08T06:47:16;101234.66;;;12.43;44.34
13974;BME280;7060;43.770;4.008;2023-04-08T06:49:44;101233.25;;;12.85;42.76
13974;BME280;7060;43.770;4.008;2023-04-08T06:52:13;101233.94;;;13.15;42.24
13974;BME280;7060;43.770;4.008;2023-04-08T06:54:41;101230.97;;;13.45;41.64
13974;BME280;7060;43.770;4.008;2023-04-08T06:57:10;101228.25;;;13.81;40.24
13974;BME280;7060;43.770;4.008;2023-04-08T06:59:38;101219.34;;;13.98;39.66
13974;BME280;7060;43.770;4.008;2023-04-08T07:02:08;101222.28;;;14.31;38.99
13974;BME280;7060;43.770;4.008;2023-04-08T07:04:37;101223.31;;;14.64;38.41
13974;BME280;7060;43.770;4.008;2023-04-08T07:07:05;101231.41;;;15.14;37.71
13974;BME280;7060;43.770;4.008;2023-04-08T07:09:34;101225.97;;;15.48;36.46
13974;BME280;7060;43.770;4.008;2023-04-08T07:12:03;101230.25;;;15.67;36.00
13974;BME280;7060;43.770;4.008;2023-04-08T07:14:31;101226.88;;;15.81;34.68
13974;BME280;7060;43.770;4.008;2023-04-08T07:17:00;101228.00;;;15.54;34.75
13974;BME280;7060;43.770;4.008;2023-04-08T07:19:30;101227.47;;;15.34;35.50
13974;BME280;7060;43.770;4.008;2023-04-08T07:21:58;101225.72;;;15.09;36.21
13974;BME280;7060;43.770;4.008;2023-04-08T07:24:27;101222.41;;;14.89;36.34
13974;BME280;7060;43.770;4.008;2023-04-08T07:26:55;101225.03;;;14.73;35.63
13974;BME280;7060;43.770;4.008;2023-04-08T07:29:24;101228.94;;;14.52;36.86
13974;BME280;7060;43.770;4.008;2023-04-08T07:31:53;101239.66;;;14.44;36.93
13974;BME280;7060;43.770;4.008;2023-04-08T07:34:22;101243.44;;;14.34;36.61
13974;BME280;7060;43.770;4.008;2023-04-08T07:36:53;101237.88;;;14.27;36.98
13974;BME280;7060;43.770;4.008;2023-04-08T07:39:21;101242.09;;;14.30;36.86
13974;BME280;7060;43.770;4.008;2023-04-08T07:41:50;101231.38;;;14.38;36.80
13974;BME280;7060;43.770;4.008;2023-04-08T07:44:18;101242.28;;;14.36;36.94
13974;BME280;7060;43.770;4.008;2023-04-08T07:46:46;101242.13;;;14.38;36.19
13974;BME280;7060;43.770;4.008;2023-04-08T07:49:17;101244.66;;;14.39;36.63
13974;BME280;7060;43.770;4.008;2023-04-08T07:51:46;101237.75;;;14.37;36.36
13974;BME280;7060;43.770;4.008;2023-04-08T07:54:15;101240.28;;;14.38;36.35
13974;BME280;7060;43.770;4.008;2023-04-08T07:56:44;101245.97;;;14.35;36.27
13974;BME280;7060;43.770;4.008;2023-04-08T07:59:12;101251.84;;;14.31;36.29
13974;BME280;7060;43.770;4.008;2023-04-08T08:01:41;101247.09;;;14.24;36.58
13974;BME280;7060;43.770;4.008;2023-04-08T08:04:09;101244.78;;;14.30;36.05
13974;BME280;7060;43.770;4.008;2023-04-08T08:06:38;101252.19;;;14.36;36.79
13974;BME280;7060;43.770;4.008;2023-04-08T08:09:06;101253.78;;;14.46;36.46
13974;BME280;7060;43.770;4.008;2023-04-08T08:11:36;101257.09;;;14.58;35.92
13974;BME280;7060;43.770;4.008;2023-04-08T08:14:04;101260.13;;;14.63;35.87
13974;BME280;7060;43.770;4.008;2023-04-08T08:16:33;101267.59;;;14.69;36.01
13974;BME280;7060;43.770;4.008;2023-04-08T08:19:02;101255.19;;;14.76;36.25
13974;BME280;7060;43.770;4.008;2023-04-08T08:21:35;101255.72;;;14.88;36.44
13974;BME280;7060;43.770;4.008;2023-04-08T08:24:04;101260.63;;;14.93;35.46
13974;BME280;7060;43.770;4.008;2023-04-08T08:26:34;101257.47;;;14.97;36.23
13974;BME280;7060;43.770;4.008;2023-04-08T08:29:04;101260.19;;;15.05;35.27
13974;BME280;7060;43.770;4.008;2023-04-08T08:31:35;101267.13;;;15.16;36.30
13974;BME280;7060;43.770;4.008;2023-04-08T08:34:03;101267.00;;;15.25;35.60
13974;BME280;7060;43.770;4.008;2023-04-08T08:36:32;101273.94;;;15.36;36.39
13974;BME280;7060;43.770;4.008;2023-04-08T08:39:00;101269.41;;;15.45;34.93
13974;BME280;7060;43.770;4.008;2023-04-08T08:41:32;101266.56;;;15.54;34.10
13974;BME280;7060;43.770;4.008;2023-04-08T08:44:03;101276.41;;;15.64;34.00
13974;BME280;7060;43.770;4.008;2023-04-08T08:46:33;101280.63;;;15.66;33.45
13974;BME280;7060;43.770;4.008;2023-04-08T08:49:02;101277.75;;;15.68;33.62
13974;BME280;7060;43.770;4.008;2023-04-08T08:51:31;101282.50;;;15.82;34.72
13974;BME280;7060;43.770;4.008;2023-04-08T08:54:01;101274.06;;;15.85;33.46
13974;BME280;7060;43.770;4.008;2023-04-08T08:56:31;101269.00;;;15.98;33.35
13974;BME280;7060;43.770;4.008;2023-04-08T08:59:00;101275.94;;;16.17;33.31
13974;BME280;7060;43.770;4.008;2023-04-08T09:01:31;101276.41;;;16.29;32.84
13974;BME280;7060;43.770;4.008;2023-04-08T09:04:12;101282.16;;;16.34;33.13
13974;BME280;7060;43.770;4.008;2023-04-08T09:06:43;101275.41;;;16.38;32.14
13974;BME280;7060;43.770;4.008;2023-04-08T09:09:12;101278.28;;;16.44;31.99
13974;BME280;7060;43.770;4.008;2023-04-08T09:11:42;101283.47;;;16.54;32.80
13974;BME280;7060;43.770;4.008;2023-04-08T09:14:18;101270.50;;;16.66;32.57
13974;BME280;7060;43.770;4.008;2023-04-08T09:16:47;101271.34;;;16.74;32.40
13974;BME280;7060;43.770;4.008;2023-04-08T09:19:17;101273.88;;;16.76;31.98
13974;BME280;7060;43.770;4.008;2023-04-08T09:22:03;101237.41;;;16.55;31.95
13974;BME280;7060;43.770;4.008;2023-04-08T09:24:33;101262.41;;;16.66;31.76
13974;BME280;7060;43.770;4.008;2023-04-08T09:27:01;101263.56;;;16.55;32.30
13974;BME280;7060;43.770;4.008;2023-04-08T09:29:30;101269.97;;;16.54;31.96
13974;BME280;7060;43.770;4.008;2023-04-08T09:32:03;101263.41;;;16.56;31.59
13974;BME280;7060;43.770;4.008;2023-04-08T09:34:33;101259.34;;;16.60;31.64
13974;BME280;7060;43.770;4.008;2023-04-08T09:37:02;101255.47;;;16.63;31.52
13974;BME280;7060;43.770;4.008;2023-04-08T09:39:31;101256.28;;;16.64;31.69
13974;BME280;7060;43.770;4.008;2023-04-08T09:41:59;101257.31;;;16.63;31.43
13974;BME280;7060;43.770;4.008;2023-04-08T09:44:30;101264.25;;;16.65;31.93
13974;BME280;7060;43.770;4.008;2023-04-08T09:47:05;101258.50;;;16.76;32.08
13974;BME280;7060;43.770;4.008;2023-04-08T09:49:42;101260.47;;;16.90;32.15
13974;BME280;7060;43.770;4.008;2023-04-08T09:52:14;101267.53;;;17.00;32.20
13974;BME280;7060;43.770;4.008;2023-04-08T09:54:53;101237.66;;;16.93;31.91
13974;BME280;7060;43.770;4.008;2023-04-08T09:57:29;101256.16;;;17.12;31.93
13974;BME280;7060;43.770;4.008;2023-04-08T10:00:04;101256.97;;;17.21;32.03
13974;BME280;7060;43.770;4.008;2023-04-08T10:02:48;101264.44;;;17.42;31.57
13974;BME280;7060;43.770;4.008;2023-04-08T10:05:23;101256.91;;;17.60;31.63
13974;BME280;7060;43.770;4.008;2023-04-08T10:07:53;101251.13;;;17.71;31.45
13974;BME280;7060;43.770;4.008;2023-04-08T10:10:23;101248.09;;;17.89;31.78
13974;BME280;7060;43.770;4.008;2023-04-08T10:12:52;101241.19;;;18.09;30.73
13974;BME280;7060;43.770;4.008;2023-04-08T10:15:22;101248.38;;;18.17;29.97
13974;BME280;7060;43.770;4.008;2023-04-08T10:17:50;101241.28;;;18.16;30.30
13974;BME280;7060;43.770;4.008;2023-04-08T10:20:42;101253.97;;;18.15;30.04
13974;BME280;7060;43.770;4.008;2023-04-08T10:23:13;101248.56;;;18.15;30.54
13974;BME280;7060;43.770;4.008;2023-04-08T10:25:42;101248.13;;;18.26;30.34
13974;BME280;7060;43.770;4.008;2023-04-08T10:28:26;101253.09;;;18.38;30.53
13974;BME280;7060;43.770;4.008;2023-04-08T10:30:56;101246.31;;;18.42;29.72
13974;BME280;7060;43.770;4.008;2023-04-08T10:33:31;101240.03;;;18.41;29.75
13974;BME280;7060;43.770;4.008;2023-04-08T10:36:09;101247.72;;;18.52;30.34
13974;BME280;7060;43.770;4.008;2023-04-08T10:38:39;101245.41;;;18.64;29.58
13974;BME280;7060;43.770;4.008;2023-04-08T10:41:09;101251.13;;;18.69;29.90
13974;BME280;7060;43.770;4.008;2023-04-08T10:43:40;101242.78;;;18.85;30.90
13974;BME280;7060;43.770;4.008;2023-04-08T10:46:09;101239.22;;;19.00;29.09
13974;BME280;7060;43.770;4.008;2023-04-08T10:48:38;101238.38;;;19.14;29.58
13974;BME280;7060;43.770;4.008;2023-04-08T10:51:08;101244.78;;;19.27;28.00
13974;BME280;7060;43.770;4.008;2023-04-08T10:53:38;101201.38;;;19.06;28.36
13974;BME280;7060;43.770;4.008;2023-04-08T10:56:08;101241.41;;;19.40;28.63
13974;BME280;7060;43.770;4.008;2023-04-08T10:58:47;101234.06;;;19.55;28.21
13974;BME280;7060;43.770;4.008;2023-04-08T11:01:16;101240.78;;;19.59;27.80
13974;BME280;7060;43.770;4.008;2023-04-08T11:03:44;101241.06;;;19.65;27.49
13974;BME280;7060;43.770;4.008;2023-04-08T11:06:15;101236.66;;;19.64;27.63
13974;BME280;7060;43.770;4.008;2023-04-08T11:08:44;101239.00;;;19.67;27.62
13974;BME280;7060;43.770;4.008;2023-04-08T11:11:13;101242.84;;;19.57;26.93
13974;BME280;7060;43.770;4.008;2023-04-08T11:13:44;101235.19;;;19.61;27.56
13974;BME280;7060;43.770;4.008;2023-04-08T11:16:20;101242.34;;;19.69;27.16
13974;BME280;7060;43.770;4.008;2023-04-08T11:18:49;101233.06;;;19.78;26.55
13974;BME280;7060;43.770;4.008;2023-04-08T11:21:20;101228.53;;;19.85;27.06
13974;BME280;7060;43.770;4.008;2023-04-08T11:23:50;101227.88;;;19.83;26.29
13974;BME280;7060;43.770;4.008;2023-04-08T11:26:20;101220.19;;;19.86;26.95
13974;BME280;7060;43.770;4.008;2023-04-08T11:28:49;101230.47;;;19.91;26.32
13974;BME280;7060;43.770;4.008;2023-04-08T11:31:19;101223.63;;;19.95;26.36
13974;BME280;7060;43.770;4.008;2023-04-08T11:33:52;101219.03;;;19.95;26.13
13974;BME280;7060;43.770;4.008;2023-04-08T11:36:23;101218.28;;;20.08;26.71
13974;BME280;7060;43.770;4.008;2023-04-08T11:38:53;101209.75;;;20.11;26.28
13974;BME280;7060;43.770;4.008;2023-04-08T11:41:21;101207.94;;;20.18;26.55
13974;BME280;7060;43.770;4.008;2023-04-08T11:43:51;101208.41;;;20.22;25.70
13974;BME280;7060;43.770;4.008;2023-04-08T11:46:19;101203.44;;;20.25;26.46
13974;BME280;7060;43.770;4.008;2023-04-08T11:49:02;101166.31;;;20.11;25.72
13974;BME280;7060;43.770;4.008;2023-04-08T11:51:32;101192.78;;;20.24;25.91
13974;BME280;7060;43.770;4.008;2023-04-08T11:54:04;101179.44;;;20.29;25.85
13974;BME280;7060;43.770;4.008;2023-04-08T11:56:44;101195.69;;;20.22;25.80
13974;BME280;7060;43.770;4.008;2023-04-08T11:59:13;101179.19;;;20.24;25.47
13974;BME280;7060;43.770;4.008;2023-04-08T12:01:42;101182.16;;;20.29;25.80
13974;BME280;7060;43.770;4.008;2023-04-08T12:04:10;101180.75;;;20.40;25.83
13974;BME280;7060;43.770;4.008;2023-04-08T12:06:40;101172.66;;;20.46;24.85
13974;BME280;7060;43.770;4.008;2023-04-08T12:09:12;101178.31;;;20.51;25.06
13974;BME280;7060;43.770;4.008;2023-04-08T12:11:41;101179.34;;;20.50;24.75
13974;BME280;7060;43.770;4.008;2023-04-08T12:14:10;101174.38;;;20.54;25.24
13974;BME280;7060;43.770;4.008;2023-04-08T12:16:38;101171.91;;;20.59;26.15
13974;BME280;7060;43.770;4.008;2023-04-08T12:19:07;101162.47;;;20.61;24.97
13974;BME280;7060;43.770;4.008;2023-04-08T12:21:35;101168.59;;;20.70;25.31
13974;BME280;7060;43.770;4.008;2023-04-08T12:24:05;101172.19;;;20.77;23.89
13974;BME280;7060;43.770;4.008;2023-04-08T12:26:34;101164.06;;;20.84;24.40
13974;BME280;7060;43.770;4.008;2023-04-08T12:29:02;101169.09;;;20.93;23.39
13974;BME280;7060;43.770;4.008;2023-04-08T12:31:31;101170.78;;;20.88;23.16
13974;BME280;7060;43.770;4.008;2023-04-08T12:34:00;101159.28;;;20.92;23.68
13974;BME280;7060;43.770;4.008;2023-04-08T12:36:28;101166.47;;;21.07;23.71
13974;BME280;7060;43.770;4.008;2023-04-08T12:38:57;101167.53;;;21.06;21.95
13974;BME280;7060;43.770;4.008;2023-04-08T12:41:27;101157.19;;;20.94;21.75
13974;BME280;7060;43.770;4.008;2023-04-08T12:43:55;101158.47;;;20.99;22.88
13974;BME280;7060;43.770;4.008;2023-04-08T12:46:24;101157.69;;;21.05;23.05
13974;BME280;7060;43.770;4.008;2023-04-08T12:48:52;101145.81;;;21.12;23.54
13974;BME280;7060;43.770;4.008;2023-04-08T12:51:31;101121.44;;;20.98;23.27
13974;BME280;7060;43.770;4.008;2023-04-08T12:53:59;101153.72;;;21.07;21.73
13974;BME280;7060;43.770;4.008;2023-04-08T12:56:29;101150.78;;;21.02;20.63
13974;BME280;7060;43.770;4.008;2023-04-08T12:58:58;101150.78;;;21.02;21.02
13974;BME280;7060;43.770;4.008;2023-04-08T13:01:27;101147.03;;;21.10;21.57
13974;BME280;7060;43.770;4.008;2023-04-08T13:03:57;101141.59;;;21.10;22.00
13974;BME280;7060;43.770;4.008;2023-04-08T13:06:25;101125.50;;;21.08;21.28
13974;BME280;7060;43.770;4.008;2023-04-08T13:08:54;101129.50;;;21.12;22.21
13974;BME280;7060;43.770;4.008;2023-04-08T13:11:22;101130.72;;;21.16;22.39
13974;BME280;7060;43.770;4.008;2023-04-08T13:13:52;101124.69;;;21.21;21.29
13974;BME280;7060;43.770;4.008;2023-04-08T13:16:21;101124.03;;;21.19;22.30
13974;BME280;7060;43.770;4.008;2023-04-08T13:18:49;101125.53;;;21.28;21.70